Westfield, NC (27053)

08:04 EST le 31 janvier 2015 (GMT -0500)
Hanging Rock State Park Visitor Center | Change Station
CLOSE
Current Station
Stations météorologiques personnelles
Location: Danbury, NC
Altitude: 1683 ft
Stations météo à proximité

Alt. 1683 ft 36.40 °N, 80.27 °W | Updated 18 minutes ago

Ciel dégagé
Ciel dégagé
24.6 ° F
Paraît 19 ° F
N
4.2
Vent Variable Vent de NO

Aujourd'hui
Haut(e) -- | Bas -- ° F
--% Risque de précip.
Hier
Haut(e) -- | Bas -- ° F
Precip. -- pouce
7:23 AM 5:46 PM
Lune gibbeuse croissante, 89% visible
Pression 30.32 pouce
Visibilité 10.0 Miles terrestres
Nuages Ciel dégagé
Refroidissement éolien 19 ° F
Point de rosée 7 ° F
Humidité 47%
Précipitations 0.00 pouce
Profondeur de la couche neigeuse Non disponible.
UV 0 sur 12
Pollen 3.00 sur 12
Qualité de l'air Non disponible.
Flu Activity Non disponible.
METAR KMWK 311255Z AUTO 31003KT 10SM CLR M02/M15 A3032 RMK AO2 T10191149

More Conditions Fewer Conditions

Pression 30.32 pouce
Visibilité 10.0 Miles terrestres
Nuages Ciel dégagé
Refroidissement éolien 19 ° F
Point de rosée 7 ° F
Humidité 47%
Précipitations 0.00 pouce
Profondeur de la couche neigeuse Non disponible.
UV 0 sur 12
Pollen 3.00 sur 12
Qualité de l'air Non disponible.
Flu Activity Non disponible.
METAR KMWK 311255Z AUTO 31003KT 10SM CLR M02/M15 A3032 RMK AO2 T10191149

More Conditions Fewer Conditions

10-Day Weather Forecast

Almanac

Astronomie

Jan. 31, 2015 Lever Coucher
Temps réel
Crépuscule civil
Crépuscule nautique
Crépuscule astronomique
Lune
Durée de lumière visible
Longueur du jour
Tomorrow will be .
, % of the Moon is Illuminated

Extrêmes aujourd'hui

State Highs State Lows

Community

WunderPhotos

Upload Photos

1,792,041 Photos téléchargées !

WunderBlogs® & News

Nearby

Qualité de l'air

  Qualité de l'air Indice de la qualité de l'air Polluant
Not available.

Épaisseur de neige

Station Depth Altitude

Activité sismique

Ville Distance Mag. Time & Date
Minimum magnitude displayed is 2.5.

Températures des eaux côtières

Lieu Température

Stations météo à proximité